sensor_id;sensor_type;location;lat;lon;timestamp;P1;durP1;ratioP1;P2;durP2;ratioP2
249;SDS011;109;19.806;-70.704;2023-07-29T00:00:06;30.70;;;5.67;;
249;SDS011;109;19.806;-70.704;2023-07-29T00:02:38;16.67;;;4.40;;
249;SDS011;109;19.806;-70.704;2023-07-29T00:05:04;31.97;;;6.07;;
249;SDS011;109;19.806;-70.704;2023-07-29T00:07:31;18.23;;;4.50;;
249;SDS011;109;19.806;-70.704;2023-07-29T00:09:57;16.00;;;5.20;;
249;SDS011;109;19.806;-70.704;2023-07-29T00:12:24;21.40;;;4.90;;
249;SDS011;109;19.806;-70.704;2023-07-29T00:14:50;20.63;;;5.10;;
249;SDS011;109;19.806;-70.704;2023-07-29T00:17:17;21.73;;;5.40;;
249;SDS011;109;19.806;-70.704;2023-07-29T00:19:45;16.17;;;4.70;;
249;SDS011;109;19.806;-70.704;2023-07-29T00:22:12;20.40;;;5.37;;
249;SDS011;109;19.806;-70.704;2023-07-29T00:24:39;26.13;;;5.73;;
249;SDS011;109;19.806;-70.704;2023-07-29T00:27:06;20.03;;;4.93;;
249;SDS011;109;19.806;-70.704;2023-07-29T00:29:33;20.10;;;4.97;;
249;SDS011;109;19.806;-70.704;2023-07-29T00:31:59;27.60;;;5.63;;
249;SDS011;109;19.806;-70.704;2023-07-29T00:34:26;24.93;;;5.80;;
249;SDS011;109;19.806;-70.704;2023-07-29T00:36:52;28.83;;;5.80;;
249;SDS011;109;19.806;-70.704;2023-07-29T00:39:19;36.57;;;6.20;;
249;SDS011;109;19.806;-70.704;2023-07-29T00:41:45;16.07;;;4.97;;
249;SDS011;109;19.806;-70.704;2023-07-29T00:44:12;27.70;;;5.83;;
249;SDS011;109;19.806;-70.704;2023-07-29T00:46:38;25.23;;;6.27;;
249;SDS011;109;19.806;-70.704;2023-07-29T00:49:07;19.40;;;6.50;;
249;SDS011;109;19.806;-70.704;2023-07-29T00:51:34;23.67;;;6.57;;
249;SDS011;109;19.806;-70.704;2023-07-29T00:54:01;22.30;;;6.30;;
249;SDS011;109;19.806;-70.704;2023-07-29T00:56:29;17.47;;;6.13;;
249;SDS011;109;19.806;-70.704;2023-07-29T00:58:56;17.07;;;5.60;;
249;SDS011;109;19.806;-70.704;2023-07-29T01:01:30;13.47;;;5.23;;
249;SDS011;109;19.806;-70.704;2023-07-29T01:03:57;23.20;;;5.20;;
249;SDS011;109;19.806;-70.704;2023-07-29T01:06:29;13.20;;;5.10;;
249;SDS011;109;19.806;-70.704;2023-07-29T01:09:04;20.27;;;6.83;;
249;SDS011;109;19.806;-70.704;2023-07-29T01:11:49;14.03;;;4.80;;
249;SDS011;109;19.806;-70.704;2023-07-29T01:17:13;17.80;;;5.60;;
249;SDS011;109;19.806;-70.704;2023-07-29T01:20:01;14.70;;;5.47;;
249;SDS011;109;19.806;-70.704;2023-07-29T01:22:38;12.00;;;5.23;;
249;SDS011;109;19.806;-70.704;2023-07-29T01:25:05;10.90;;;5.50;;
249;SDS011;109;19.806;-70.704;2023-07-29T01:27:39;15.97;;;6.10;;
249;SDS011;109;19.806;-70.704;2023-07-29T01:30:07;12.60;;;5.90;;
249;SDS011;109;19.806;-70.704;2023-07-29T01:32:45;11.43;;;5.20;;
249;SDS011;109;19.806;-70.704;2023-07-29T01:35:28;21.17;;;5.97;;
249;SDS011;109;19.806;-70.704;2023-07-29T01:38:24;16.37;;;5.93;;
249;SDS011;109;19.806;-70.704;2023-07-29T01:41:07;17.53;;;5.40;;
249;SDS011;109;19.806;-70.704;2023-07-29T01:43:34;27.27;;;6.20;;
249;SDS011;109;19.806;-70.704;2023-07-29T01:46:16;15.07;;;5.00;;
249;SDS011;109;19.806;-70.704;2023-07-29T01:49:04;22.30;;;6.50;;
249;SDS011;109;19.806;-70.704;2023-07-29T01:51:37;14.33;;;5.40;;
249;SDS011;109;19.806;-70.704;2023-07-29T01:54:04;16.07;;;4.70;;
249;SDS011;109;19.806;-70.704;2023-07-29T01:56:37;13.77;;;4.90;;
249;SDS011;109;19.806;-70.704;2023-07-29T01:59:03;12.30;;;4.80;;
249;SDS011;109;19.806;-70.704;2023-07-29T02:01:37;17.20;;;5.73;;
249;SDS011;109;19.806;-70.704;2023-07-29T02:04:03;15.07;;;5.33;;
249;SDS011;109;19.806;-70.704;2023-07-29T02:06:37;12.80;;;5.57;;
249;SDS011;109;19.806;-70.704;2023-07-29T02:09:03;15.40;;;4.83;;
249;SDS011;109;19.806;-70.704;2023-07-29T02:11:37;15.97;;;5.07;;
249;SDS011;109;19.806;-70.704;2023-07-29T02:14:03;14.67;;;5.10;;
249;SDS011;109;19.806;-70.704;2023-07-29T02:16:37;21.80;;;5.10;;
249;SDS011;109;19.806;-70.704;2023-07-29T02:19:05;17.10;;;5.83;;
249;SDS011;109;19.806;-70.704;2023-07-29T02:21:38;10.50;;;5.10;;
249;SDS011;109;19.806;-70.704;2023-07-29T02:24:04;11.40;;;4.63;;
249;SDS011;109;19.806;-70.704;2023-07-29T02:26:38;14.03;;;5.53;;
249;SDS011;109;19.806;-70.704;2023-07-29T02:29:04;17.13;;;5.20;;
249;SDS011;109;19.806;-70.704;2023-07-29T02:31:47;13.10;;;5.00;;
249;SDS011;109;19.806;-70.704;2023-07-29T02:34:33;11.10;;;5.03;;
249;SDS011;109;19.806;-70.704;2023-07-29T02:37:13;17.17;;;5.70;;
249;SDS011;109;19.806;-70.704;2023-07-29T02:39:47;14.07;;;5.13;;
249;SDS011;109;19.806;-70.704;2023-07-29T02:42:13;15.13;;;5.17;;
249;SDS011;109;19.806;-70.704;2023-07-29T02:44:47;8.93;;;4.70;;
249;SDS011;109;19.806;-70.704;2023-07-29T02:47:13;12.30;;;5.10;;
249;SDS011;109;19.806;-70.704;2023-07-29T02:49:47;15.77;;;5.40;;
249;SDS011;109;19.806;-70.704;2023-07-29T02:52:27;22.20;;;5.37;;
249;SDS011;109;19.806;-70.704;2023-07-29T02:54:53;17.67;;;5.67;;
249;SDS011;109;19.806;-70.704;2023-07-29T02:57:27;16.33;;;6.03;;
249;SDS011;109;19.806;-70.704;2023-07-29T02:59:53;14.47;;;5.40;;
249;SDS011;109;19.806;-70.704;2023-07-29T03:02:27;14.40;;;5.87;;
249;SDS011;109;19.806;-70.704;2023-07-29T03:04:53;14.10;;;5.73;;
249;SDS011;109;19.806;-70.704;2023-07-29T03:07:27;18.30;;;5.80;;
249;SDS011;109;19.806;-70.704;2023-07-29T03:09:53;20.00;;;6.40;;
249;SDS011;109;19.806;-70.704;2023-07-29T03:12:27;15.17;;;5.57;;
249;SDS011;109;19.806;-70.704;2023-07-29T03:14:53;16.60;;;5.50;;
249;SDS011;109;19.806;-70.704;2023-07-29T03:17:27;12.87;;;5.37;;
249;SDS011;109;19.806;-70.704;2023-07-29T03:19:54;18.03;;;5.63;;
249;SDS011;109;19.806;-70.704;2023-07-29T03:22:27;20.60;;;6.10;;
249;SDS011;109;19.806;-70.704;2023-07-29T03:24:53;14.57;;;5.40;;
249;SDS011;109;19.806;-70.704;2023-07-29T03:27:27;17.33;;;5.43;;
249;SDS011;109;19.806;-70.704;2023-07-29T03:30:00;20.30;;;5.30;;
249;SDS011;109;19.806;-70.704;2023-07-29T03:32:34;14.10;;;4.70;;
249;SDS011;109;19.806;-70.704;2023-07-29T03:35:00;17.03;;;5.30;;
249;SDS011;109;19.806;-70.704;2023-07-29T03:37:34;12.10;;;4.73;;
249;SDS011;109;19.806;-70.704;2023-07-29T03:40:00;15.63;;;5.03;;
249;SDS011;109;19.806;-70.704;2023-07-29T03:42:34;14.63;;;4.80;;
249;SDS011;109;19.806;-70.704;2023-07-29T03:45:01;11.40;;;4.80;;
249;SDS011;109;19.806;-70.704;2023-07-29T03:47:35;14.20;;;4.70;;
249;SDS011;109;19.806;-70.704;2023-07-29T03:50:21;9.70;;;4.70;;
249;SDS011;109;19.806;-70.704;2023-07-29T03:52:55;14.10;;;4.50;;
249;SDS011;109;19.806;-70.704;2023-07-29T03:55:22;15.37;;;4.50;;
249;SDS011;109;19.806;-70.704;2023-07-29T03:57:56;15.57;;;4.23;;
249;SDS011;109;19.806;-70.704;2023-07-29T04:00:23;15.63;;;4.40;;
249;SDS011;109;19.806;-70.704;2023-07-29T04:02:57;15.13;;;5.10;;
249;SDS011;109;19.806;-70.704;2023-07-29T04:05:23;18.73;;;5.50;;
249;SDS011;109;19.806;-70.704;2023-07-29T04:07:57;15.33;;;5.40;;
249;SDS011;109;19.806;-70.704;2023-07-29T04:10:23;17.87;;;4.60;;
249;SDS011;109;19.806;-70.704;2023-07-29T04:12:57;17.30;;;5.10;;
249;SDS011;109;19.806;-70.704;2023-07-29T04:15:24;14.70;;;5.30;;
249;SDS011;109;19.806;-70.704;2023-07-29T04:17:58;11.47;;;5.00;;
249;SDS011;109;19.806;-70.704;2023-07-29T04:20:24;16.27;;;6.03;;
249;SDS011;109;19.806;-70.704;2023-07-29T04:22:58;17.00;;;5.10;;
249;SDS011;109;19.806;-70.704;2023-07-29T04:25:24;17.00;;;5.30;;
249;SDS011;109;19.806;-70.704;2023-07-29T04:27:58;18.07;;;5.43;;
249;SDS011;109;19.806;-70.704;2023-07-29T04:30:32;14.37;;;4.80;;
249;SDS011;109;19.806;-70.704;2023-07-29T04:33:06;19.83;;;5.30;;
249;SDS011;109;19.806;-70.704;2023-07-29T04:35:32;18.40;;;5.80;;
249;SDS011;109;19.806;-70.704;2023-07-29T04:38:06;18.23;;;5.63;;
249;SDS011;109;19.806;-70.704;2023-07-29T04:40:33;14.47;;;4.47;;
249;SDS011;109;19.806;-70.704;2023-07-29T04:43:06;12.87;;;5.20;;
249;SDS011;109;19.806;-70.704;2023-07-29T04:45:34;16.50;;;4.73;;
249;SDS011;109;19.806;-70.704;2023-07-29T04:48:07;19.23;;;5.20;;
249;SDS011;109;19.806;-70.704;2023-07-29T04:50:47;14.23;;;4.90;;
249;SDS011;109;19.806;-70.704;2023-07-29T04:53:13;20.10;;;4.67;;
249;SDS011;109;19.806;-70.704;2023-07-29T04:55:47;13.20;;;5.17;;
249;SDS011;109;19.806;-70.704;2023-07-29T04:58:13;13.87;;;4.50;;
249;SDS011;109;19.806;-70.704;2023-07-29T05:00:46;21.03;;;5.10;;
249;SDS011;109;19.806;-70.704;2023-07-29T05:03:13;20.40;;;5.00;;
249;SDS011;109;19.806;-70.704;2023-07-29T05:05:46;11.00;;;4.80;;
249;SDS011;109;19.806;-70.704;2023-07-29T05:08:21;15.10;;;5.00;;
249;SDS011;109;19.806;-70.704;2023-07-29T05:10:54;13.60;;;4.77;;
249;SDS011;109;19.806;-70.704;2023-07-29T05:13:21;12.53;;;4.40;;
249;SDS011;109;19.806;-70.704;2023-07-29T05:15:56;14.33;;;4.60;;
249;SDS011;109;19.806;-70.704;2023-07-29T05:18:22;11.67;;;4.77;;
249;SDS011;109;19.806;-70.704;2023-07-29T05:20:56;15.27;;;5.90;;
249;SDS011;109;19.806;-70.704;2023-07-29T05:23:22;14.80;;;4.80;;
249;SDS011;109;19.806;-70.704;2023-07-29T05:25:57;17.60;;;5.20;;
249;SDS011;109;19.806;-70.704;2023-07-29T05:28:23;18.07;;;5.20;;
249;SDS011;109;19.806;-70.704;2023-07-29T05:31:00;16.70;;;4.90;;
249;SDS011;109;19.806;-70.704;2023-07-29T05:33:35;13.87;;;5.00;;
249;SDS011;109;19.806;-70.704;2023-07-29T05:36:02;18.70;;;4.67;;
249;SDS011;109;19.806;-70.704;2023-07-29T05:38:35;16.60;;;5.00;;
249;SDS011;109;19.806;-70.704;2023-07-29T05:41:06;10.97;;;4.90;;
249;SDS011;109;19.806;-70.704;2023-07-29T05:43:40;31.53;;;5.80;;
249;SDS011;109;19.806;-70.704;2023-07-29T05:46:09;20.80;;;5.23;;
249;SDS011;109;19.806;-70.704;2023-07-29T05:48:42;18.63;;;5.10;;
249;SDS011;109;19.806;-70.704;2023-07-29T05:51:29;21.70;;;5.40;;
249;SDS011;109;19.806;-70.704;2023-07-29T05:54:03;14.57;;;6.13;;
249;SDS011;109;19.806;-70.704;2023-07-29T05:56:29;20.47;;;4.87;;
249;SDS011;109;19.806;-70.704;2023-07-29T05:59:03;21.63;;;5.13;;
249;SDS011;109;19.806;-70.704;2023-07-29T06:01:29;14.30;;;5.03;;
249;SDS011;109;19.806;-70.704;2023-07-29T06:04:02;20.00;;;5.07;;
249;SDS011;109;19.806;-70.704;2023-07-29T06:06:28;17.43;;;5.57;;
249;SDS011;109;19.806;-70.704;2023-07-29T06:09:02;19.67;;;5.07;;
249;SDS011;109;19.806;-70.704;2023-07-29T06:11:28;17.70;;;4.80;;
249;SDS011;109;19.806;-70.704;2023-07-29T06:14:02;17.17;;;5.20;;
249;SDS011;109;19.806;-70.704;2023-07-29T06:16:28;18.60;;;5.20;;
249;SDS011;109;19.806;-70.704;2023-07-29T06:19:02;18.47;;;4.90;;
249;SDS011;109;19.806;-70.704;2023-07-29T06:21:28;22.00;;;4.80;;
249;SDS011;109;19.806;-70.704;2023-07-29T06:24:02;11.70;;;4.57;;
249;SDS011;109;19.806;-70.704;2023-07-29T06:26:28;16.17;;;4.87;;
249;SDS011;109;19.806;-70.704;2023-07-29T06:29:02;21.20;;;5.30;;
249;SDS011;109;19.806;-70.704;2023-07-29T06:31:28;13.73;;;5.10;;
249;SDS011;109;19.806;-70.704;2023-07-29T06:34:02;17.50;;;5.00;;
249;SDS011;109;19.806;-70.704;2023-07-29T06:36:28;21.63;;;5.40;;
249;SDS011;109;19.806;-70.704;2023-07-29T06:39:02;12.40;;;4.83;;
249;SDS011;109;19.806;-70.704;2023-07-29T06:41:36;13.50;;;4.83;;
249;SDS011;109;19.806;-70.704;2023-07-29T06:44:12;12.27;;;4.50;;
249;SDS011;109;19.806;-70.704;2023-07-29T06:46:39;17.00;;;4.27;;
249;SDS011;109;19.806;-70.704;2023-07-29T06:49:12;14.30;;;5.40;;
249;SDS011;109;19.806;-70.704;2023-07-29T06:51:52;17.03;;;4.93;;
249;SDS011;109;19.806;-70.704;2023-07-29T06:54:18;26.93;;;5.23;;
249;SDS011;109;19.806;-70.704;2023-07-29T06:56:51;13.03;;;5.13;;
249;SDS011;109;19.806;-70.704;2023-07-29T06:59:17;14.37;;;4.67;;
249;SDS011;109;19.806;-70.704;2023-07-29T07:01:51;17.80;;;5.10;;
249;SDS011;109;19.806;-70.704;2023-07-29T07:04:17;23.23;;;5.27;;
249;SDS011;109;19.806;-70.704;2023-07-29T07:06:50;18.83;;;4.40;;
249;SDS011;109;19.806;-70.704;2023-07-29T07:09:16;14.80;;;4.93;;
249;SDS011;109;19.806;-70.704;2023-07-29T07:11:49;16.60;;;4.60;;
249;SDS011;109;19.806;-70.704;2023-07-29T07:14:15;14.73;;;4.73;;
249;SDS011;109;19.806;-70.704;2023-07-29T07:16:48;17.27;;;5.90;;
249;SDS011;109;19.806;-70.704;2023-07-29T07:19:14;13.37;;;4.80;;
249;SDS011;109;19.806;-70.704;2023-07-29T07:21:48;18.07;;;5.67;;
249;SDS011;109;19.806;-70.704;2023-07-29T07:24:14;10.50;;;4.37;;
249;SDS011;109;19.806;-70.704;2023-07-29T07:26:48;13.33;;;4.20;;
249;SDS011;109;19.806;-70.704;2023-07-29T07:29:14;15.97;;;4.70;;
249;SDS011;109;19.806;-70.704;2023-07-29T07:31:51;16.70;;;5.10;;
249;SDS011;109;19.806;-70.704;2023-07-29T07:34:26;17.40;;;3.93;;
249;SDS011;109;19.806;-70.704;2023-07-29T07:36:52;15.83;;;5.10;;
249;SDS011;109;19.806;-70.704;2023-07-29T07:39:33;12.87;;;4.80;;
249;SDS011;109;19.806;-70.704;2023-07-29T07:42:07;13.87;;;4.87;;
249;SDS011;109;19.806;-70.704;2023-07-29T07:44:33;12.43;;;4.37;;
249;SDS011;109;19.806;-70.704;2023-07-29T07:47:07;18.80;;;5.40;;
249;SDS011;109;19.806;-70.704;2023-07-29T07:49:53;20.30;;;5.23;;
249;SDS011;109;19.806;-70.704;2023-07-29T07:52:27;8.90;;;4.63;;
249;SDS011;109;19.806;-70.704;2023-07-29T07:54:54;18.37;;;4.47;;
249;SDS011;109;19.806;-70.704;2023-07-29T07:57:28;21.23;;;4.90;;
249;SDS011;109;19.806;-70.704;2023-07-29T07:59:54;17.97;;;4.70;;
249;SDS011;109;19.806;-70.704;2023-07-29T08:02:27;21.07;;;4.80;;
249;SDS011;109;19.806;-70.704;2023-07-29T08:04:53;16.00;;;4.70;;
249;SDS011;109;19.806;-70.704;2023-07-29T08:07:26;9.13;;;4.10;;
249;SDS011;109;19.806;-70.704;2023-07-29T08:09:52;12.77;;;4.80;;
249;SDS011;109;19.806;-70.704;2023-07-29T08:12:25;13.33;;;4.77;;
249;SDS011;109;19.806;-70.704;2023-07-29T08:14:51;15.17;;;4.60;;
249;SDS011;109;19.806;-70.704;2023-07-29T08:17:25;19.03;;;6.40;;
249;SDS011;109;19.806;-70.704;2023-07-29T08:19:51;15.50;;;5.23;;
249;SDS011;109;19.806;-70.704;2023-07-29T08:22:25;16.70;;;5.20;;
249;SDS011;109;19.806;-70.704;2023-07-29T08:24:51;14.63;;;4.83;;
249;SDS011;109;19.806;-70.704;2023-07-29T08:27:25;14.43;;;4.63;;
249;SDS011;109;19.806;-70.704;2023-07-29T08:29:53;14.10;;;4.97;;
249;SDS011;109;19.806;-70.704;2023-07-29T08:32:26;17.00;;;4.77;;
249;SDS011;109;19.806;-70.704;2023-07-29T08:34:58;20.97;;;5.50;;
249;SDS011;109;19.806;-70.704;2023-07-29T08:37:32;17.53;;;6.07;;
249;SDS011;109;19.806;-70.704;2023-07-29T08:39:59;19.50;;;4.73;;
249;SDS011;109;19.806;-70.704;2023-07-29T08:42:32;13.07;;;4.60;;
249;SDS011;109;19.806;-70.704;2023-07-29T08:45:06;18.40;;;4.67;;
249;SDS011;109;19.806;-70.704;2023-07-29T08:47:47;15.27;;;4.90;;
249;SDS011;109;19.806;-70.704;2023-07-29T08:50:33;12.00;;;4.37;;
249;SDS011;109;19.806;-70.704;2023-07-29T08:53:05;12.27;;;4.47;;
249;SDS011;109;19.806;-70.704;2023-07-29T08:55:38;17.93;;;6.40;;
249;SDS011;109;19.806;-70.704;2023-07-29T08:58:05;10.77;;;4.00;;
249;SDS011;109;19.806;-70.704;2023-07-29T09:00:38;14.07;;;4.70;;
249;SDS011;109;19.806;-70.704;2023-07-29T09:03:05;11.67;;;4.60;;
249;SDS011;109;19.806;-70.704;2023-07-29T09:05:39;18.57;;;5.30;;
249;SDS011;109;19.806;-70.704;2023-07-29T09:08:05;12.20;;;4.30;;
249;SDS011;109;19.806;-70.704;2023-07-29T09:10:47;16.50;;;4.97;;
249;SDS011;109;19.806;-70.704;2023-07-29T09:13:21;10.23;;;4.63;;
249;SDS011;109;19.806;-70.704;2023-07-29T09:15:48;23.70;;;4.17;;
249;SDS011;109;19.806;-70.704;2023-07-29T09:18:21;16.67;;;4.60;;
249;SDS011;109;19.806;-70.704;2023-07-29T09:20:48;15.13;;;4.53;;
249;SDS011;109;19.806;-70.704;2023-07-29T09:23:23;12.90;;;4.07;;
249;SDS011;109;19.806;-70.704;2023-07-29T09:25:49;10.60;;;3.70;;
249;SDS011;109;19.806;-70.704;2023-07-29T09:28:23;19.03;;;5.10;;
249;SDS011;109;19.806;-70.704;2023-07-29T09:30:49;12.73;;;4.23;;
249;SDS011;109;19.806;-70.704;2023-07-29T09:33:25;12.43;;;4.17;;
249;SDS011;109;19.806;-70.704;2023-07-29T09:35:52;14.70;;;4.63;;
249;SDS011;109;19.806;-70.704;2023-07-29T09:38:28;8.80;;;3.93;;
249;SDS011;109;19.806;-70.704;2023-07-29T09:41:02;19.60;;;4.50;;
249;SDS011;109;19.806;-70.704;2023-07-29T09:43:29;17.33;;;4.50;;
249;SDS011;109;19.806;-70.704;2023-07-29T09:46:04;19.47;;;5.00;;
249;SDS011;109;19.806;-70.704;2023-07-29T09:48:52;10.87;;;4.10;;
249;SDS011;109;19.806;-70.704;2023-07-29T09:51:29;11.13;;;4.43;;
249;SDS011;109;19.806;-70.704;2023-07-29T09:54:03;13.07;;;4.00;;
249;SDS011;109;19.806;-70.704;2023-07-29T09:56:39;16.60;;;4.40;;
249;SDS011;109;19.806;-70.704;2023-07-29T09:59:18;11.40;;;4.93;;
249;SDS011;109;19.806;-70.704;2023-07-29T10:01:45;14.57;;;4.50;;
249;SDS011;109;19.806;-70.704;2023-07-29T10:04:18;12.57;;;5.10;;
249;SDS011;109;19.806;-70.704;2023-07-29T10:06:45;9.60;;;4.60;;
249;SDS011;109;19.806;-70.704;2023-07-29T10:09:19;12.57;;;4.53;;
249;SDS011;109;19.806;-70.704;2023-07-29T10:11:47;12.40;;;3.93;;
249;SDS011;109;19.806;-70.704;2023-07-29T10:14:23;14.43;;;4.27;;
249;SDS011;109;19.806;-70.704;2023-07-29T10:17:00;21.60;;;5.13;;
249;SDS011;109;19.806;-70.704;2023-07-29T10:19:28;15.10;;;5.27;;
249;SDS011;109;19.806;-70.704;2023-07-29T10:22:03;14.00;;;4.90;;
249;SDS011;109;19.806;-70.704;2023-07-29T10:24:32;16.13;;;5.20;;
249;SDS011;109;19.806;-70.704;2023-07-29T10:27:06;16.37;;;5.37;;
249;SDS011;109;19.806;-70.704;2023-07-29T10:29:37;12.03;;;4.40;;
249;SDS011;109;19.806;-70.704;2023-07-29T10:32:13;12.50;;;4.93;;
249;SDS011;109;19.806;-70.704;2023-07-29T10:34:40;12.63;;;5.40;;
249;SDS011;109;19.806;-70.704;2023-07-29T10:37:14;9.23;;;4.80;;
249;SDS011;109;19.806;-70.704;2023-07-29T10:39:44;14.67;;;5.50;;
249;SDS011;109;19.806;-70.704;2023-07-29T10:42:25;11.10;;;5.23;;
249;SDS011;109;19.806;-70.704;2023-07-29T10:44:52;13.67;;;7.80;;
249;SDS011;109;19.806;-70.704;2023-07-29T10:47:26;14.40;;;8.40;;
249;SDS011;109;19.806;-70.704;2023-07-29T10:50:21;32.97;;;9.53;;
249;SDS011;109;19.806;-70.704;2023-07-29T10:55:55;25.73;;;12.73;;
249;SDS011;109;19.806;-70.704;2023-07-29T10:58:29;27.03;;;14.03;;
249;SDS011;109;19.806;-70.704;2023-07-29T11:01:12;32.60;;;14.40;;
249;SDS011;109;19.806;-70.704;2023-07-29T11:12:35;17.63;;;11.40;;
249;SDS011;109;19.806;-70.704;2023-07-29T11:17:46;26.60;;;11.43;;
249;SDS011;109;19.806;-70.704;2023-07-29T11:20:14;19.70;;;9.57;;
249;SDS011;109;19.806;-70.704;2023-07-29T11:22:41;17.67;;;9.60;;
249;SDS011;109;19.806;-70.704;2023-07-29T11:25:09;24.60;;;8.73;;
249;SDS011;109;19.806;-70.704;2023-07-29T11:27:38;20.10;;;7.63;;
249;SDS011;109;19.806;-70.704;2023-07-29T11:30:06;20.20;;;7.60;;
249;SDS011;109;19.806;-70.704;2023-07-29T11:32:34;17.90;;;7.03;;
249;SDS011;109;19.806;-70.704;2023-07-29T11:35:08;21.63;;;6.13;;
249;SDS011;109;19.806;-70.704;2023-07-29T11:37:38;18.80;;;5.30;;
249;SDS011;109;19.806;-70.704;2023-07-29T11:40:05;11.07;;;5.23;;
249;SDS011;109;19.806;-70.704;2023-07-29T11:42:34;16.03;;;5.10;;
249;SDS011;109;19.806;-70.704;2023-07-29T11:45:01;11.00;;;4.53;;
249;SDS011;109;19.806;-70.704;2023-07-29T11:47:32;18.03;;;4.33;;
249;SDS011;109;19.806;-70.704;2023-07-29T11:50:03;11.03;;;5.07;;
249;SDS011;109;19.806;-70.704;2023-07-29T11:52:34;11.77;;;5.17;;
249;SDS011;109;19.806;-70.704;2023-07-29T11:55:02;16.67;;;5.33;;
249;SDS011;109;19.806;-70.704;2023-07-29T11:57:30;14.57;;;5.93;;
249;SDS011;109;19.806;-70.704;2023-07-29T11:59:59;12.17;;;4.67;;
249;SDS011;109;19.806;-70.704;2023-07-29T12:02:34;24.60;;;4.70;;
249;SDS011;109;19.806;-70.704;2023-07-29T12:05:03;10.73;;;4.27;;
249;SDS011;109;19.806;-70.704;2023-07-29T12:07:31;23.40;;;4.67;;
249;SDS011;109;19.806;-70.704;2023-07-29T12:10:02;14.87;;;5.13;;
249;SDS011;109;19.806;-70.704;2023-07-29T12:12:29;12.13;;;4.70;;
249;SDS011;109;19.806;-70.704;2023-07-29T12:14:56;23.00;;;5.40;;
249;SDS011;109;19.806;-70.704;2023-07-29T12:17:23;17.37;;;4.50;;
249;SDS011;109;19.806;-70.704;2023-07-29T12:19:49;19.37;;;5.67;;
249;SDS011;109;19.806;-70.704;2023-07-29T12:22:19;24.40;;;6.13;;
249;SDS011;109;19.806;-70.704;2023-07-29T12:24:46;19.93;;;5.77;;
249;SDS011;109;19.806;-70.704;2023-07-29T12:27:13;20.67;;;6.33;;
249;SDS011;109;19.806;-70.704;2023-07-29T12:29:41;18.60;;;6.00;;
249;SDS011;109;19.806;-70.704;2023-07-29T12:32:09;22.50;;;6.60;;
249;SDS011;109;19.806;-70.704;2023-07-29T12:34:37;19.07;;;6.90;;
249;SDS011;109;19.806;-70.704;2023-07-29T12:37:05;14.97;;;6.33;;
249;SDS011;109;19.806;-70.704;2023-07-29T12:39:33;20.23;;;6.80;;
249;SDS011;109;19.806;-70.704;2023-07-29T12:42:01;18.03;;;6.07;;
249;SDS011;109;19.806;-70.704;2023-07-29T12:44:33;17.67;;;6.27;;
249;SDS011;109;19.806;-70.704;2023-07-29T12:47:01;25.10;;;6.27;;
249;SDS011;109;19.806;-70.704;2023-07-29T12:49:29;22.60;;;7.17;;
249;SDS011;109;19.806;-70.704;2023-07-29T12:51:57;28.30;;;7.13;;
249;SDS011;109;19.806;-70.704;2023-07-29T12:54:24;14.47;;;5.90;;
249;SDS011;109;19.806;-70.704;2023-07-29T12:56:51;21.63;;;6.63;;
249;SDS011;109;19.806;-70.704;2023-07-29T12:59:18;18.10;;;5.97;;
249;SDS011;109;19.806;-70.704;2023-07-29T13:01:44;19.27;;;5.97;;
249;SDS011;109;19.806;-70.704;2023-07-29T13:04:11;15.37;;;5.57;;
249;SDS011;109;19.806;-70.704;2023-07-29T13:06:37;19.10;;;6.00;;
249;SDS011;109;19.806;-70.704;2023-07-29T13:09:04;21.13;;;5.50;;
249;SDS011;109;19.806;-70.704;2023-07-29T13:11:31;18.47;;;5.73;;
249;SDS011;109;19.806;-70.704;2023-07-29T13:13:58;16.87;;;4.40;;
249;SDS011;109;19.806;-70.704;2023-07-29T13:16:26;15.53;;;4.80;;
249;SDS011;109;19.806;-70.704;2023-07-29T13:18:53;22.47;;;4.17;;
249;SDS011;109;19.806;-70.704;2023-07-29T13:21:21;15.67;;;4.20;;
249;SDS011;109;19.806;-70.704;2023-07-29T13:23:47;15.10;;;4.67;;
249;SDS011;109;19.806;-70.704;2023-07-29T13:26:14;14.90;;;3.60;;
249;SDS011;109;19.806;-70.704;2023-07-29T13:28:40;10.33;;;4.37;;
249;SDS011;109;19.806;-70.704;2023-07-29T13:31:07;17.00;;;4.20;;
249;SDS011;109;19.806;-70.704;2023-07-29T13:33:33;10.40;;;3.17;;
249;SDS011;109;19.806;-70.704;2023-07-29T13:36:00;12.93;;;3.50;;
249;SDS011;109;19.806;-70.704;2023-07-29T13:38:30;13.93;;;3.80;;
249;SDS011;109;19.806;-70.704;2023-07-29T13:40:56;18.23;;;3.60;;
249;SDS011;109;19.806;-70.704;2023-07-29T13:43:23;22.57;;;4.30;;
249;SDS011;109;19.806;-70.704;2023-07-29T13:45:49;40.63;;;7.40;;
249;SDS011;109;19.806;-70.704;2023-07-29T13:48:16;18.87;;;4.30;;
249;SDS011;109;19.806;-70.704;2023-07-29T13:50:43;16.57;;;3.60;;
249;SDS011;109;19.806;-70.704;2023-07-29T13:53:10;16.83;;;3.60;;
249;SDS011;109;19.806;-70.704;2023-07-29T13:55:36;11.70;;;3.80;;
249;SDS011;109;19.806;-70.704;2023-07-29T13:58:03;10.97;;;3.87;;
249;SDS011;109;19.806;-70.704;2023-07-29T14:00:29;10.27;;;3.40;;
249;SDS011;109;19.806;-70.704;2023-07-29T14:02:56;17.07;;;4.70;;
249;SDS011;109;19.806;-70.704;2023-07-29T14:05:22;27.83;;;4.70;;
249;SDS011;109;19.806;-70.704;2023-07-29T14:07:49;17.23;;;4.93;;
249;SDS011;109;19.806;-70.704;2023-07-29T14:10:15;15.90;;;5.73;;
249;SDS011;109;19.806;-70.704;2023-07-29T14:12:42;16.57;;;5.00;;
249;SDS011;109;19.806;-70.704;2023-07-29T14:15:09;15.17;;;4.17;;
249;SDS011;109;19.806;-70.704;2023-07-29T14:17:35;22.30;;;4.73;;
249;SDS011;109;19.806;-70.704;2023-07-29T14:20:02;18.43;;;4.83;;
249;SDS011;109;19.806;-70.704;2023-07-29T14:22:30;17.63;;;4.47;;
249;SDS011;109;19.806;-70.704;2023-07-29T14:24:57;16.63;;;4.43;;
249;SDS011;109;19.806;-70.704;2023-07-29T14:27:23;19.17;;;4.27;;
249;SDS011;109;19.806;-70.704;2023-07-29T14:29:50;16.13;;;4.17;;
249;SDS011;109;19.806;-70.704;2023-07-29T14:32:16;20.07;;;3.90;;
249;SDS011;109;19.806;-70.704;2023-07-29T14:34:42;17.83;;;4.50;;
249;SDS011;109;19.806;-70.704;2023-07-29T14:37:09;21.97;;;5.53;;
249;SDS011;109;19.806;-70.704;2023-07-29T14:39:35;14.07;;;4.03;;
249;SDS011;109;19.806;-70.704;2023-07-29T14:42:02;12.93;;;3.53;;
249;SDS011;109;19.806;-70.704;2023-07-29T14:44:29;18.30;;;4.80;;
249;SDS011;109;19.806;-70.704;2023-07-29T14:46:55;16.30;;;4.77;;
249;SDS011;109;19.806;-70.704;2023-07-29T14:49:22;25.73;;;4.23;;
249;SDS011;109;19.806;-70.704;2023-07-29T14:51:48;18.30;;;4.23;;
249;SDS011;109;19.806;-70.704;2023-07-29T14:54:15;18.07;;;5.40;;
249;SDS011;109;19.806;-70.704;2023-07-29T14:56:41;21.40;;;4.20;;
249;SDS011;109;19.806;-70.704;2023-07-29T14:59:08;19.03;;;4.20;;
249;SDS011;109;19.806;-70.704;2023-07-29T15:01:35;22.53;;;5.13;;
249;SDS011;109;19.806;-70.704;2023-07-29T15:04:01;25.63;;;4.60;;
249;SDS011;109;19.806;-70.704;2023-07-29T15:06:28;14.23;;;4.27;;
249;SDS011;109;19.806;-70.704;2023-07-29T15:08:54;21.40;;;3.93;;
249;SDS011;109;19.806;-70.704;2023-07-29T15:11:21;22.43;;;5.07;;
249;SDS011;109;19.806;-70.704;2023-07-29T15:13:47;18.33;;;4.57;;
249;SDS011;109;19.806;-70.704;2023-07-29T15:16:14;22.97;;;5.17;;
249;SDS011;109;19.806;-70.704;2023-07-29T15:18:40;28.00;;;4.80;;
249;SDS011;109;19.806;-70.704;2023-07-29T15:21:07;19.53;;;4.50;;
249;SDS011;109;19.806;-70.704;2023-07-29T15:23:35;18.80;;;5.20;;
249;SDS011;109;19.806;-70.704;2023-07-29T15:26:01;21.63;;;4.83;;
249;SDS011;109;19.806;-70.704;2023-07-29T15:28:28;38.27;;;6.90;;
249;SDS011;109;19.806;-70.704;2023-07-29T15:30:54;19.60;;;4.50;;
249;SDS011;109;19.806;-70.704;2023-07-29T15:33:21;25.33;;;5.87;;
249;SDS011;109;19.806;-70.704;2023-07-29T15:35:47;22.00;;;5.00;;